sensor_id;sensor_type;location;lat;lon;timestamp;pressure;altitude;pressure_sealevel;temperature;humidity
2188;BME280;1100;52.014;8.540;2023-07-09T00:02:14;100451.63;;;19.42;51.10
2188;BME280;1100;52.014;8.540;2023-07-09T00:04:40;100444.41;;;19.36;51.07
2188;BME280;1100;52.014;8.540;2023-07-09T00:07:15;100450.44;;;19.28;51.29
2188;BME280;1100;52.014;8.540;2023-07-09T00:09:42;100455.53;;;19.24;51.41
2188;BME280;1100;52.014;8.540;2023-07-09T00:12:14;100453.38;;;19.19;51.54
2188;BME280;1100;52.014;8.540;2023-07-09T00:14:40;100449.72;;;19.13;51.63
2188;BME280;1100;52.014;8.540;2023-07-09T00:17:19;100438.34;;;19.07;51.86
2188;BME280;1100;52.014;8.540;2023-07-09T00:19:46;100440.88;;;19.05;51.79
2188;BME280;1100;52.014;8.540;2023-07-09T00:22:15;100436.72;;;19.00;51.99
2188;BME280;1100;52.014;8.540;2023-07-09T00:24:44;100443.63;;;18.99;52.00
2188;BME280;1100;52.014;8.540;2023-07-09T00:27:11;100446.94;;;18.98;52.05
2188;BME280;1100;52.014;8.540;2023-07-09T00:29:37;100445.09;;;18.95;52.05
2188;BME280;1100;52.014;8.540;2023-07-09T00:32:03;100448.41;;;18.93;52.24
2188;BME280;1100;52.014;8.540;2023-07-09T00:34:28;100444.25;;;18.88;52.27
2188;BME280;1100;52.014;8.540;2023-07-09T00:36:54;100442.41;;;18.85;52.35
2188;BME280;1100;52.014;8.540;2023-07-09T00:39:21;100456.69;;;18.82;52.55
2188;BME280;1100;52.014;8.540;2023-07-09T00:41:47;100453.78;;;18.76;52.52
2188;BME280;1100;52.014;8.540;2023-07-09T00:49:13;100463.81;;;18.62;52.92
2188;BME280;1100;52.014;8.540;2023-07-09T00:51:44;100461.66;;;18.57;53.04
2188;BME280;1100;52.014;8.540;2023-07-09T00:54:40;100455.75;;;18.54;53.21
2188;BME280;1100;52.014;8.540;2023-07-09T00:57:11;100455.16;;;18.50;53.25
2188;BME280;1100;52.014;8.540;2023-07-09T00:59:38;100463.63;;;18.50;53.39
2188;BME280;1100;52.014;8.540;2023-07-09T01:02:07;100463.31;;;18.48;53.31
2188;BME280;1100;52.014;8.540;2023-07-09T01:04:33;100462.56;;;18.48;53.31
2188;BME280;1100;52.014;8.540;2023-07-09T01:06:59;100461.19;;;18.43;53.43
2188;BME280;1100;52.014;8.540;2023-07-09T01:09:26;100462.19;;;18.40;53.53
2188;BME280;1100;52.014;8.540;2023-07-09T01:11:51;100468.78;;;18.37;53.71
2188;BME280;1100;52.014;8.540;2023-07-09T01:14:21;100460.03;;;18.35;53.88
2188;BME280;1100;52.014;8.540;2023-07-09T01:16:53;100455.38;;;18.32;53.95
2188;BME280;1100;52.014;8.540;2023-07-09T01:19:29;100460.44;;;18.27;54.04
2188;BME280;1100;52.014;8.540;2023-07-09T01:21:59;100460.63;;;18.24;54.07
2188;BME280;1100;52.014;8.540;2023-07-09T01:29:56;100445.09;;;18.13;54.19
2188;BME280;1100;52.014;8.540;2023-07-09T01:32:22;100449.81;;;18.07;54.23
2188;BME280;1100;52.014;8.540;2023-07-09T01:34:51;100447.38;;;18.00;54.67
2188;BME280;1100;52.014;8.540;2023-07-09T01:37:25;100445.53;;;17.97;54.54
2188;BME280;1100;52.014;8.540;2023-07-09T01:39:51;100448.53;;;17.93;54.74
2188;BME280;1100;52.014;8.540;2023-07-09T01:42:18;100447.94;;;17.89;54.70
2188;BME280;1100;52.014;8.540;2023-07-09T01:44:45;100443.75;;;17.84;54.97
2188;BME280;1100;52.014;8.540;2023-07-09T01:47:11;100441.91;;;17.81;55.07
2188;BME280;1100;52.014;8.540;2023-07-09T01:49:36;100443.34;;;17.76;55.18
2188;BME280;1100;52.014;8.540;2023-07-09T01:52:05;100435.88;;;17.73;55.22
2188;BME280;1100;52.014;8.540;2023-07-09T01:54:33;100438.41;;;17.71;55.31
2188;BME280;1100;52.014;8.540;2023-07-09T01:57:23;100438.13;;;17.69;55.45
2188;BME280;1100;52.014;8.540;2023-07-09T01:59:52;100438.28;;;17.65;55.66
2188;BME280;1100;52.014;8.540;2023-07-09T02:02:20;100431.59;;;17.63;55.84
2188;BME280;1100;52.014;8.540;2023-07-09T02:04:50;100428.50;;;17.61;55.81
2188;BME280;1100;52.014;8.540;2023-07-09T02:07:17;100426.94;;;17.60;55.91
2188;BME280;1100;52.014;8.540;2023-07-09T02:09:43;100434.31;;;17.57;56.08
2188;BME280;1100;52.014;8.540;2023-07-09T02:12:09;100432.25;;;17.58;56.09
2188;BME280;1100;52.014;8.540;2023-07-09T02:14:36;100436.34;;;17.56;56.29
2188;BME280;1100;52.014;8.540;2023-07-09T02:17:01;100439.81;;;17.51;56.21
2188;BME280;1100;52.014;8.540;2023-07-09T02:19:28;100432.34;;;17.48;56.39
2188;BME280;1100;52.014;8.540;2023-07-09T02:21:54;100434.88;;;17.46;56.51
2188;BME280;1100;52.014;8.540;2023-07-09T02:24:20;100439.88;;;17.42;56.60
2188;BME280;1100;52.014;8.540;2023-07-09T02:26:49;100439.41;;;17.43;56.73
2188;BME280;1100;52.014;8.540;2023-07-09T02:29:15;100439.13;;;17.41;56.70
2188;BME280;1100;52.014;8.540;2023-07-09T02:31:40;100433.66;;;17.38;56.76
2188;BME280;1100;52.014;8.540;2023-07-09T02:34:05;100440.56;;;17.37;57.15
2188;BME280;1100;52.014;8.540;2023-07-09T02:36:31;100438.22;;;17.35;57.13
2188;BME280;1100;52.014;8.540;2023-07-09T02:38:56;100441.97;;;17.32;57.07
2188;BME280;1100;52.014;8.540;2023-07-09T02:41:21;100444.50;;;17.30;57.19
2188;BME280;1100;52.014;8.540;2023-07-09T02:43:46;100444.19;;;17.28;57.38
2188;BME280;1100;52.014;8.540;2023-07-09T02:46:12;100450.28;;;17.26;57.37
2188;BME280;1100;52.014;8.540;2023-07-09T02:48:37;100447.16;;;17.24;57.31
2188;BME280;1100;52.014;8.540;2023-07-09T02:51:02;100446.41;;;17.24;57.59
2188;BME280;1100;52.014;8.540;2023-07-09T02:53:28;100455.31;;;17.22;57.54
2188;BME280;1100;52.014;8.540;2023-07-09T02:55:53;100454.41;;;17.16;57.97
2188;BME280;1100;52.014;8.540;2023-07-09T02:58:18;100455.34;;;17.13;57.72
2188;BME280;1100;52.014;8.540;2023-07-09T03:00:44;100456.31;;;17.10;57.87
2188;BME280;1100;52.014;8.540;2023-07-09T03:03:17;100449.13;;;17.09;58.17
2188;BME280;1100;52.014;8.540;2023-07-09T03:05:44;100454.25;;;17.10;58.18
2188;BME280;1100;52.014;8.540;2023-07-09T03:08:10;100457.84;;;17.11;58.28
2188;BME280;1100;52.014;8.540;2023-07-09T03:10:35;100451.16;;;17.08;58.41
2188;BME280;1100;52.014;8.540;2023-07-09T03:13:00;100455.19;;;17.07;58.36
2188;BME280;1100;52.014;8.540;2023-07-09T03:15:26;100455.38;;;17.03;58.53
2188;BME280;1100;52.014;8.540;2023-07-09T03:17:51;100453.03;;;17.02;58.51
2188;BME280;1100;52.014;8.540;2023-07-09T03:20:16;100449.94;;;17.00;58.59
2188;BME280;1100;52.014;8.540;2023-07-09T03:22:42;100460.69;;;17.01;58.59
2188;BME280;1100;52.014;8.540;2023-07-09T03:25:07;100456.34;;;17.00;58.87
2188;BME280;1100;52.014;8.540;2023-07-09T03:27:32;100456.81;;;16.99;59.00
2188;BME280;1100;52.014;8.540;2023-07-09T03:29:58;100460.38;;;16.99;58.95
2188;BME280;1100;52.014;8.540;2023-07-09T03:32:23;100454.75;;;16.99;58.80
2188;BME280;1100;52.014;8.540;2023-07-09T03:34:48;100452.75;;;17.00;58.90
2188;BME280;1100;52.014;8.540;2023-07-09T03:37:14;100458.34;;;17.00;58.96
2188;BME280;1100;52.014;8.540;2023-07-09T03:39:40;100457.56;;;16.99;58.98
2188;BME280;1100;52.014;8.540;2023-07-09T03:42:05;100454.75;;;16.99;58.97
2188;BME280;1100;52.014;8.540;2023-07-09T03:44:30;100458.34;;;17.00;58.91
2188;BME280;1100;52.014;8.540;2023-07-09T03:46:56;100465.22;;;16.99;58.92
2188;BME280;1100;52.014;8.540;2023-07-09T03:49:21;100454.75;;;16.99;59.06
2188;BME280;1100;52.014;8.540;2023-07-09T03:51:46;100464.75;;;17.00;59.14
2188;BME280;1100;52.014;8.540;2023-07-09T03:54:12;100463.97;;;17.00;59.03
2188;BME280;1100;52.014;8.540;2023-07-09T03:56:37;100458.66;;;17.02;59.05
2188;BME280;1100;52.014;8.540;2023-07-09T03:59:02;100460.22;;;17.03;59.40
2188;BME280;1100;52.014;8.540;2023-07-09T04:01:28;100454.13;;;17.04;59.27
2188;BME280;1100;52.014;8.540;2023-07-09T04:03:53;100461.13;;;17.09;59.35
2188;BME280;1100;52.014;8.540;2023-07-09T04:06:18;100453.03;;;17.11;59.32
2188;BME280;1100;52.014;8.540;2023-07-09T04:08:43;100459.25;;;17.15;59.29
2188;BME280;1100;52.014;8.540;2023-07-09T04:11:09;100454.69;;;17.18;59.41
2188;BME280;1100;52.014;8.540;2023-07-09T04:13:34;100462.16;;;17.21;59.33
2188;BME280;1100;52.014;8.540;2023-07-09T04:16:00;100462.00;;;17.25;59.50
2188;BME280;1100;52.014;8.540;2023-07-09T04:18:25;100463.06;;;17.27;59.35
2188;BME280;1100;52.014;8.540;2023-07-09T04:20:51;100456.19;;;17.28;59.41
2188;BME280;1100;52.014;8.540;2023-07-09T04:23:18;100458.06;;;17.31;59.37
2188;BME280;1100;52.014;8.540;2023-07-09T04:25:43;100463.03;;;17.37;59.64
2188;BME280;1100;52.014;8.540;2023-07-09T04:28:09;100453.91;;;17.42;59.62
2188;BME280;1100;52.014;8.540;2023-07-09T04:30:34;100452.97;;;17.45;59.51
2188;BME280;1100;52.014;8.540;2023-07-09T04:32:59;100457.94;;;17.50;59.63
2188;BME280;1100;52.014;8.540;2023-07-09T04:35:25;100455.22;;;17.56;59.77
2188;BME280;1100;52.014;8.540;2023-07-09T04:37:50;100453.78;;;17.61;59.84
2188;BME280;1100;52.014;8.540;2023-07-09T04:40:18;100454.88;;;17.63;59.75
2188;BME280;1100;52.014;8.540;2023-07-09T04:42:44;100452.16;;;17.69;59.86
2188;BME280;1100;52.014;8.540;2023-07-09T04:45:10;100455.88;;;17.75;59.92
2188;BME280;1100;52.014;8.540;2023-07-09T04:47:37;100456.75;;;17.81;59.93
2188;BME280;1100;52.014;8.540;2023-07-09T04:50:06;100453.56;;;17.89;60.01
2188;BME280;1100;52.014;8.540;2023-07-09T04:52:33;100447.56;;;17.96;59.97
2188;BME280;1100;52.014;8.540;2023-07-09T04:54:58;100454.34;;;18.04;59.93
2188;BME280;1100;52.014;8.540;2023-07-09T04:57:24;100453.22;;;18.11;59.88
2188;BME280;1100;52.014;8.540;2023-07-09T04:59:50;100453.63;;;18.19;60.07
2188;BME280;1100;52.014;8.540;2023-07-09T05:02:15;100454.97;;;18.24;59.84
2188;BME280;1100;52.014;8.540;2023-07-09T05:04:40;100449.44;;;18.29;60.09
2188;BME280;1100;52.014;8.540;2023-07-09T05:07:06;100451.09;;;18.36;60.11
2188;BME280;1100;52.014;8.540;2023-07-09T05:09:32;100459.94;;;18.44;59.97
2188;BME280;1100;52.014;8.540;2023-07-09T05:11:58;100454.69;;;18.52;60.05
2188;BME280;1100;52.014;8.540;2023-07-09T05:14:23;100453.78;;;18.61;60.12
2188;BME280;1100;52.014;8.540;2023-07-09T05:16:48;100456.53;;;18.70;60.23
2188;BME280;1100;52.014;8.540;2023-07-09T05:19:14;100460.75;;;18.80;60.16
2188;BME280;1100;52.014;8.540;2023-07-09T05:21:39;100457.03;;;18.89;60.05
2188;BME280;1100;52.014;8.540;2023-07-09T05:24:05;100454.34;;;18.95;60.15
2188;BME280;1100;52.014;8.540;2023-07-09T05:26:30;100461.09;;;19.03;60.21
2188;BME280;1100;52.014;8.540;2023-07-09T05:28:55;100451.16;;;19.08;60.13
2188;BME280;1100;52.014;8.540;2023-07-09T05:31:22;100461.97;;;19.10;60.09
2188;BME280;1100;52.014;8.540;2023-07-09T05:33:47;100459.94;;;19.10;60.12
2188;BME280;1100;52.014;8.540;2023-07-09T05:36:12;100462.56;;;19.14;60.12
2188;BME280;1100;52.014;8.540;2023-07-09T05:38:43;100463.69;;;19.22;60.10
2188;BME280;1100;52.014;8.540;2023-07-09T05:41:10;100466.09;;;19.29;60.03
2188;BME280;1100;52.014;8.540;2023-07-09T05:43:35;100464.41;;;19.38;60.04
2188;BME280;1100;52.014;8.540;2023-07-09T05:46:02;100467.84;;;19.48;60.21
2188;BME280;1100;52.014;8.540;2023-07-09T05:48:28;100465.88;;;19.54;60.20
2188;BME280;1100;52.014;8.540;2023-07-09T05:50:53;100463.22;;;19.65;60.10
2188;BME280;1100;52.014;8.540;2023-07-09T05:53:20;100466.44;;;19.79;60.16
2188;BME280;1100;52.014;8.540;2023-07-09T05:55:45;100460.97;;;19.96;60.22
2188;BME280;1100;52.014;8.540;2023-07-09T05:58:10;100469.63;;;20.13;60.07
2188;BME280;1100;52.014;8.540;2023-07-09T06:00:36;100467.47;;;20.29;59.99
2188;BME280;1100;52.014;8.540;2023-07-09T06:03:03;100474.25;;;20.43;59.90
2188;BME280;1100;52.014;8.540;2023-07-09T06:05:32;100472.81;;;20.53;59.73
2188;BME280;1100;52.014;8.540;2023-07-09T06:07:58;100473.19;;;20.67;59.68
2188;BME280;1100;52.014;8.540;2023-07-09T06:10:23;100468.63;;;20.75;59.57
2188;BME280;1100;52.014;8.540;2023-07-09T06:12:48;100475.34;;;20.84;59.48
2188;BME280;1100;52.014;8.540;2023-07-09T06:15:14;100474.41;;;20.93;59.24
2188;BME280;1100;52.014;8.540;2023-07-09T06:17:39;100472.91;;;20.97;59.36
2188;BME280;1100;52.014;8.540;2023-07-09T06:20:05;100478.09;;;21.04;59.31
2188;BME280;1100;52.014;8.540;2023-07-09T06:22:30;100480.72;;;21.14;59.34
2188;BME280;1100;52.014;8.540;2023-07-09T06:24:56;100478.97;;;21.22;59.02
2188;BME280;1100;52.014;8.540;2023-07-09T06:27:21;100476.44;;;21.30;59.00
2188;BME280;1100;52.014;8.540;2023-07-09T06:29:46;100477.75;;;21.40;59.06
2188;BME280;1100;52.014;8.540;2023-07-09T06:32:12;100477.81;;;21.52;59.08
2188;BME280;1100;52.014;8.540;2023-07-09T06:34:37;100470.91;;;21.64;58.68
2188;BME280;1100;52.014;8.540;2023-07-09T06:37:03;100478.97;;;21.77;58.84
2188;BME280;1100;52.014;8.540;2023-07-09T06:39:30;100476.44;;;21.91;58.83
2188;BME280;1100;52.014;8.540;2023-07-09T06:41:55;100485.97;;;22.05;58.79
2188;BME280;1100;52.014;8.540;2023-07-09T06:44:20;100489.63;;;22.23;58.64
2188;BME280;1100;52.014;8.540;2023-07-09T06:46:46;100492.47;;;22.40;58.48
2188;BME280;1100;52.014;8.540;2023-07-09T06:49:13;100488.34;;;22.58;58.38
2188;BME280;1100;52.014;8.540;2023-07-09T06:51:38;100491.47;;;22.77;58.32
2188;BME280;1100;52.014;8.540;2023-07-09T06:54:04;100483.47;;;22.93;58.10
2188;BME280;1100;52.014;8.540;2023-07-09T06:56:30;100485.47;;;23.10;58.07
2188;BME280;1100;52.014;8.540;2023-07-09T06:58:56;100489.56;;;23.26;57.90
2188;BME280;1100;52.014;8.540;2023-07-09T07:01:22;100484.38;;;23.42;57.66
2188;BME280;1100;52.014;8.540;2023-07-09T07:03:47;100498.25;;;23.57;57.66
2188;BME280;1100;52.014;8.540;2023-07-09T07:06:13;100495.38;;;23.68;57.20
2188;BME280;1100;52.014;8.540;2023-07-09T07:08:38;100491.97;;;23.81;57.02
2188;BME280;1100;52.014;8.540;2023-07-09T07:11:04;100488.78;;;23.96;57.28
2188;BME280;1100;52.014;8.540;2023-07-09T07:13:31;100494.13;;;24.11;57.04
2188;BME280;1100;52.014;8.540;2023-07-09T07:15:57;100493.25;;;24.28;56.81
2188;BME280;1100;52.014;8.540;2023-07-09T07:18:22;100491.06;;;24.46;56.82
2188;BME280;1100;52.014;8.540;2023-07-09T07:20:49;100489.59;;;24.64;56.43
2188;BME280;1100;52.014;8.540;2023-07-09T07:23:14;100491.28;;;24.79;56.20
2188;BME280;1100;52.014;8.540;2023-07-09T07:25:41;100484.22;;;24.85;56.10
2188;BME280;1100;52.014;8.540;2023-07-09T07:28:06;100486.75;;;24.95;55.84
2188;BME280;1100;52.014;8.540;2023-07-09T07:30:31;100488.19;;;25.07;55.93
2188;BME280;1100;52.014;8.540;2023-07-09T07:32:57;100485.16;;;25.24;56.00
2188;BME280;1100;52.014;8.540;2023-07-09T07:35:22;100488.56;;;25.42;55.46
2188;BME280;1100;52.014;8.540;2023-07-09T07:37:48;100493.06;;;25.57;55.42
2188;BME280;1100;52.014;8.540;2023-07-09T07:40:13;100495.47;;;25.72;55.15
2188;BME280;1100;52.014;8.540;2023-07-09T07:42:39;100493.81;;;25.82;55.12
2188;BME280;1100;52.014;8.540;2023-07-09T07:45:05;100494.84;;;25.98;54.99
2188;BME280;1100;52.014;8.540;2023-07-09T07:47:32;100495.25;;;26.08;54.73
2188;BME280;1100;52.014;8.540;2023-07-09T07:49:57;100498.69;;;26.20;54.64
2188;BME280;1100;52.014;8.540;2023-07-09T07:52:23;100491.53;;;26.33;54.64
2188;BME280;1100;52.014;8.540;2023-07-09T07:54:48;100495.72;;;26.45;54.63
2188;BME280;1100;52.014;8.540;2023-07-09T07:57:14;100484.59;;;26.61;54.78
2188;BME280;1100;52.014;8.540;2023-07-09T07:59:39;100495.28;;;26.87;54.33
2188;BME280;1100;52.014;8.540;2023-07-09T08:02:08;100491.91;;;27.16;54.47
2188;BME280;1100;52.014;8.540;2023-07-09T08:04:36;100482.25;;;27.46;54.31
2188;BME280;1100;52.014;8.540;2023-07-09T08:07:01;100488.38;;;27.78;53.67
2188;BME280;1100;52.014;8.540;2023-07-09T08:09:27;100479.03;;;28.12;53.45
2188;BME280;1100;52.014;8.540;2023-07-09T08:11:52;100481.56;;;28.37;52.68
2188;BME280;1100;52.014;8.540;2023-07-09T08:14:17;100469.97;;;28.64;52.31
2188;BME280;1100;52.014;8.540;2023-07-09T08:16:43;100482.16;;;28.86;51.90
2188;BME280;1100;52.014;8.540;2023-07-09T08:19:08;100484.41;;;29.09;51.43
2188;BME280;1100;52.014;8.540;2023-07-09T08:21:34;100476.47;;;29.23;51.17
2188;BME280;1100;52.014;8.540;2023-07-09T08:23:59;100478.47;;;29.36;50.74
2188;BME280;1100;52.014;8.540;2023-07-09T08:26:25;100474.78;;;29.57;50.15
2188;BME280;1100;52.014;8.540;2023-07-09T08:28:51;100473.66;;;29.68;49.73
2188;BME280;1100;52.014;8.540;2023-07-09T08:31:17;100475.06;;;29.82;49.82
2188;BME280;1100;52.014;8.540;2023-07-09T08:33:42;100479.88;;;30.03;49.25
2188;BME280;1100;52.014;8.540;2023-07-09T08:36:07;100478.41;;;30.26;48.81
2188;BME280;1100;52.014;8.540;2023-07-09T08:38:33;100475.53;;;30.26;48.20
2188;BME280;1100;52.014;8.540;2023-07-09T08:49:15;100471.16;;;30.79;47.70
2188;BME280;1100;52.014;8.540;2023-07-09T08:51:42;100473.44;;;30.96;47.46
2188;BME280;1100;52.014;8.540;2023-07-09T08:54:17;100473.38;;;31.12;47.39
2188;BME280;1100;52.014;8.540;2023-07-09T08:56:46;100473.78;;;31.08;46.95
2188;BME280;1100;52.014;8.540;2023-07-09T08:59:14;100467.91;;;30.91;46.80
2188;BME280;1100;52.014;8.540;2023-07-09T09:01:53;100477.81;;;30.98;46.81
2188;BME280;1100;52.014;8.540;2023-07-09T09:04:27;100473.19;;;31.10;46.85
2188;BME280;1100;52.014;8.540;2023-07-09T09:09:44;100476.56;;;31.32;46.46
2188;BME280;1100;52.014;8.540;2023-07-09T09:12:21;100476.19;;;31.43;46.54
2188;BME280;1100;52.014;8.540;2023-07-09T09:14:58;100482.22;;;31.63;45.96
2188;BME280;1100;52.014;8.540;2023-07-09T09:17:26;100479.34;;;31.63;46.21
2188;BME280;1100;52.014;8.540;2023-07-09T09:20:05;100473.91;;;31.83;46.11
2188;BME280;1100;52.014;8.540;2023-07-09T09:22:43;100467.16;;;31.88;45.41
2188;BME280;1100;52.014;8.540;2023-07-09T09:25:21;100477.66;;;31.93;45.36
2188;BME280;1100;52.014;8.540;2023-07-09T09:27:49;100473.47;;;31.94;45.40
2188;BME280;1100;52.014;8.540;2023-07-09T09:30:17;100473.59;;;32.04;45.06
2188;BME280;1100;52.014;8.540;2023-07-09T09:32:46;100481.72;;;32.24;45.00
2188;BME280;1100;52.014;8.540;2023-07-09T09:35:17;100476.94;;;32.44;44.88
2188;BME280;1100;52.014;8.540;2023-07-09T09:37:56;100469.91;;;32.63;44.86
2188;BME280;1100;52.014;8.540;2023-07-09T09:40:24;100475.41;;;32.68;44.49
2188;BME280;1100;52.014;8.540;2023-07-09T09:42:51;100479.50;;;32.83;44.12
2188;BME280;1100;52.014;8.540;2023-07-09T09:45:21;100483.56;;;32.80;43.65
2188;BME280;1100;52.014;8.540;2023-07-09T09:47:48;100474.00;;;32.77;43.31
2188;BME280;1100;52.014;8.540;2023-07-09T09:50:19;100483.81;;;32.74;42.80
2188;BME280;1100;52.014;8.540;2023-07-09T09:52:46;100478.13;;;32.66;43.52
2188;BME280;1100;52.014;8.540;2023-07-09T09:55:20;100480.03;;;32.89;42.79
2188;BME280;1100;52.014;8.540;2023-07-09T09:57:49;100470.88;;;33.01;42.45
2188;BME280;1100;52.014;8.540;2023-07-09T10:00:16;100473.28;;;33.12;42.07
2188;BME280;1100;52.014;8.540;2023-07-09T10:02:42;100478.19;;;33.19;41.91
2188;BME280;1100;52.014;8.540;2023-07-09T10:05:14;100477.00;;;33.23;40.97
2188;BME280;1100;52.014;8.540;2023-07-09T10:07:59;100475.38;;;33.29;41.15
2188;BME280;1100;52.014;8.540;2023-07-09T10:10:28;100480.97;;;33.45;41.57
2188;BME280;1100;52.014;8.540;2023-07-09T10:13:20;100481.19;;;33.57;41.08
2188;BME280;1100;52.014;8.540;2023-07-09T10:19:20;100483.09;;;33.62;41.39
2188;BME280;1100;52.014;8.540;2023-07-09T10:21:34;100484.25;;;33.59;41.47
2188;BME280;1100;52.014;8.540;2023-07-09T10:24:44;100491.03;;;33.54;41.06
2188;BME280;1100;52.014;8.540;2023-07-09T10:27:13;100485.00;;;33.60;40.95
2188;BME280;1100;52.014;8.540;2023-07-09T10:32:40;100480.34;;;33.64;40.32
2188;BME280;1100;52.014;8.540;2023-07-09T10:35:21;100484.44;;;33.43;40.50
2188;BME280;1100;52.014;8.540;2023-07-09T10:38:02;100482.66;;;33.48;40.10
2188;BME280;1100;52.014;8.540;2023-07-09T10:40:35;100481.91;;;33.48;40.48
2188;BME280;1100;52.014;8.540;2023-07-09T10:43:02;100480.22;;;33.62;40.43
2188;BME280;1100;52.014;8.540;2023-07-09T10:45:36;100478.72;;;33.71;40.59
2188;BME280;1100;52.014;8.540;2023-07-09T10:48:12;100477.16;;;33.88;40.54
2188;BME280;1100;52.014;8.540;2023-07-09T10:50:42;100480.13;;;33.80;40.87
2188;BME280;1100;52.014;8.540;2023-07-09T10:53:14;100478.22;;;33.92;40.53
2188;BME280;1100;52.014;8.540;2023-07-09T10:55:49;100472.69;;;34.04;40.86
2188;BME280;1100;52.014;8.540;2023-07-09T11:00:59;100467.63;;;34.23;40.91
2188;BME280;1100;52.014;8.540;2023-07-09T11:03:50;100468.22;;;34.21;40.58
2188;BME280;1100;52.014;8.540;2023-07-09T11:06:39;100470.69;;;34.25;40.31
2188;BME280;1100;52.014;8.540;2023-07-09T11:09:19;100465.38;;;34.31;40.20
2188;BME280;1100;52.014;8.540;2023-07-09T11:11:50;100468.28;;;34.41;40.53
2188;BME280;1100;52.014;8.540;2023-07-09T11:16:48;100459.97;;;34.45;40.84
2188;BME280;1100;52.014;8.540;2023-07-09T11:19:17;100451.31;;;34.55;40.34
2188;BME280;1100;52.014;8.540;2023-07-09T11:27:29;100452.72;;;34.64;40.10
2188;BME280;1100;52.014;8.540;2023-07-09T11:30:19;100453.16;;;34.60;40.37
2188;BME280;1100;52.014;8.540;2023-07-09T11:32:46;100450.06;;;34.38;40.03
2188;BME280;1100;52.014;8.540;2023-07-09T11:35:25;100451.00;;;34.51;40.62
2188;BME280;1100;52.014;8.540;2023-07-09T11:37:51;100451.63;;;34.59;38.97
2188;BME280;1100;52.014;8.540;2023-07-09T11:40:18;100443.13;;;34.51;39.17
2188;BME280;1100;52.014;8.540;2023-07-09T11:42:58;100442.50;;;34.53;39.11
2188;BME280;1100;52.014;8.540;2023-07-09T11:45:31;100435.53;;;34.56;39.16
2188;BME280;1100;52.014;8.540;2023-07-09T11:48:10;100434.47;;;34.61;39.66
2188;BME280;1100;52.014;8.540;2023-07-09T11:50:46;100445.41;;;34.63;39.35
2188;BME280;1100;52.014;8.540;2023-07-09T11:55:54;100444.59;;;34.42;38.75
2188;BME280;1100;52.014;8.540;2023-07-09T11:58:19;100447.66;;;34.45;39.44
2188;BME280;1100;52.014;8.540;2023-07-09T12:00:50;100456.34;;;34.64;39.40
2188;BME280;1100;52.014;8.540;2023-07-09T12:03:22;100445.16;;;34.69;38.25
2188;BME280;1100;52.014;8.540;2023-07-09T12:05:50;100444.19;;;34.66;37.98
2188;BME280;1100;52.014;8.540;2023-07-09T12:08:16;100441.50;;;34.68;38.11
2188;BME280;1100;52.014;8.540;2023-07-09T12:10:44;100436.34;;;34.76;38.41
2188;BME280;1100;52.014;8.540;2023-07-09T12:13:11;100429.22;;;34.67;38.62
2188;BME280;1100;52.014;8.540;2023-07-09T12:15:38;100428.09;;;34.63;38.12
2188;BME280;1100;52.014;8.540;2023-07-09T12:18:11;100422.00;;;34.49;37.51
2188;BME280;1100;52.014;8.540;2023-07-09T12:20:36;100419.72;;;34.37;38.38
2188;BME280;1100;52.014;8.540;2023-07-09T12:25:49;100415.94;;;34.07;38.76
2188;BME280;1100;52.014;8.540;2023-07-09T12:28:17;100402.81;;;33.86;38.92
2188;BME280;1100;52.014;8.540;2023-07-09T12:30:51;100401.66;;;33.62;38.80
2188;BME280;1100;52.014;8.540;2023-07-09T12:33:22;100398.34;;;33.48;38.79
2188;BME280;1100;52.014;8.540;2023-07-09T12:35:51;100389.44;;;33.26;38.95
2188;BME280;1100;52.014;8.540;2023-07-09T12:38:23;100397.69;;;33.12;39.48
2188;BME280;1100;52.014;8.540;2023-07-09T12:40:50;100385.88;;;33.00;39.73
2188;BME280;1100;52.014;8.540;2023-07-09T12:43:26;100387.00;;;32.87;39.55
2188;BME280;1100;52.014;8.540;2023-07-09T12:45:53;100378.03;;;32.65;39.75
2188;BME280;1100;52.014;8.540;2023-07-09T12:48:22;100369.63;;;32.59;39.89
2188;BME280;1100;52.014;8.540;2023-07-09T12:50:50;100371.34;;;32.62;40.37
2188;BME280;1100;52.014;8.540;2023-07-09T12:53:20;100368.72;;;32.74;39.99
2188;BME280;1100;52.014;8.540;2023-07-09T12:55:51;100361.19;;;32.79;39.43
2188;BME280;1100;52.014;8.540;2023-07-09T12:58:31;100364.75;;;32.69;37.96
2188;BME280;1100;52.014;8.540;2023-07-09T13:00:57;100352.97;;;32.57;38.23
2188;BME280;1100;52.014;8.540;2023-07-09T13:03:28;100357.13;;;32.64;38.78
2188;BME280;1100;52.014;8.540;2023-07-09T13:06:05;100352.06;;;32.73;39.06
2188;BME280;1100;52.014;8.540;2023-07-09T13:08:39;100357.88;;;32.82;37.14
2188;BME280;1100;52.014;8.540;2023-07-09T13:11:14;100349.59;;;32.87;38.13
2188;BME280;1100;52.014;8.540;2023-07-09T13:13:40;100347.97;;;32.93;37.81
2188;BME280;1100;52.014;8.540;2023-07-09T13:16:06;100341.97;;;32.99;37.63
2188;BME280;1100;52.014;8.540;2023-07-09T13:18:31;100354.38;;;33.02;37.56
2188;BME280;1100;52.014;8.540;2023-07-09T13:20:56;100343.28;;;32.98;37.91
2188;BME280;1100;52.014;8.540;2023-07-09T13:23:27;100341.00;;;32.97;37.97
2188;BME280;1100;52.014;8.540;2023-07-09T13:25:54;100342.38;;;33.13;38.08
2188;BME280;1100;52.014;8.540;2023-07-09T13:28:28;100351.28;;;33.35;38.15
2188;BME280;1100;52.014;8.540;2023-07-09T13:33:34;100341.31;;;33.64;35.40
2188;BME280;1100;52.014;8.540;2023-07-09T13:35:59;100343.50;;;33.83;36.16
2188;BME280;1100;52.014;8.540;2023-07-09T13:38:26;100338.25;;;34.09;36.50
2188;BME280;1100;52.014;8.540;2023-07-09T13:40:55;100339.69;;;34.28;36.34
2188;BME280;1100;52.014;8.540;2023-07-09T13:43:32;100329.97;;;34.23;35.06
2188;BME280;1100;52.014;8.540;2023-07-09T13:46:00;100328.91;;;34.18;35.77
2188;BME280;1100;52.014;8.540;2023-07-09T13:48:27;100331.63;;;34.16;35.32
2188;BME280;1100;52.014;8.540;2023-07-09T13:50:54;100331.63;;;34.16;35.54
2188;BME280;1100;52.014;8.540;2023-07-09T13:53:23;100333.56;;;34.14;36.00
2188;BME280;1100;52.014;8.540;2023-07-09T13:55:49;100336.34;;;34.22;35.81
2188;BME280;1100;52.014;8.540;2023-07-09T13:58:18;100331.78;;;34.18;35.89
2188;BME280;1100;52.014;8.540;2023-07-09T14:00:45;100332.63;;;34.01;35.57
2188;BME280;1100;52.014;8.540;2023-07-09T14:03:24;100331.81;;;33.91;35.88